createdAt,value
2022-11-23T15:32:22.574Z,5.50
2022-11-23T15:34:43.244Z,5.15
2022-11-23T15:37:10.345Z,5.60
2022-11-23T15:39:37.171Z,4.90
2022-11-23T15:42:03.850Z,5.15
2022-11-23T15:44:31.247Z,5.30
2022-11-23T15:47:02.654Z,4.75
2022-11-23T15:49:29.539Z,4.85
2022-11-23T15:52:00.232Z,5.00
2022-11-23T15:54:31.847Z,4.55
2022-11-23T15:56:58.830Z,4.70
2022-11-23T15:59:28.351Z,4.40
2022-11-23T16:01:56.018Z,4.55
2022-11-23T16:04:30.419Z,4.15
2022-11-23T16:06:57.711Z,4.05
2022-11-23T16:09:50.503Z,4.03
2022-11-23T16:12:21.132Z,4.30
2022-11-23T16:14:48.071Z,4.35
2022-11-23T16:17:21.990Z,3.60
2022-11-23T16:19:52.854Z,3.72
2022-11-23T16:22:25.411Z,3.60
2022-11-23T16:24:59.891Z,3.55
2022-11-23T16:27:26.450Z,3.55
2022-11-23T16:29:57.578Z,3.47
2022-11-23T16:32:29.660Z,3.42
2022-11-23T16:34:59.002Z,3.50
2022-11-23T16:37:26.535Z,3.58
2022-11-23T16:39:53.472Z,3.50
2022-11-23T16:42:20.011Z,3.38
2022-11-23T16:44:46.532Z,3.17
2022-11-23T16:47:23.481Z,3.47
2022-11-23T16:49:50.151Z,3.42
2022-11-23T16:52:17.191Z,2.80
2022-11-23T16:54:43.790Z,3.60
2022-11-23T16:57:30.199Z,3.42
2022-11-23T16:59:57.032Z,3.35
2022-11-23T17:02:23.645Z,3.10
2022-11-23T17:04:50.262Z,3.38
2022-11-23T17:07:17.042Z,2.60
2022-11-23T17:09:43.717Z,2.92
2022-11-23T17:12:14.333Z,2.88
2022-11-23T17:14:40.991Z,3.03
2022-11-23T17:17:10.289Z,2.70
2022-11-23T17:19:36.871Z,3.10
2022-11-23T17:22:03.511Z,3.20
2022-11-23T17:24:30.302Z,2.80
2022-11-23T17:26:57.332Z,3.15
2022-11-23T17:29:24.572Z,2.83
2022-11-23T17:31:51.139Z,2.65
2022-11-23T17:34:18.080Z,2.40
2022-11-23T17:36:46.113Z,2.72
2022-11-23T17:39:20.334Z,2.50
2022-11-23T17:41:48.220Z,2.80
2022-11-23T17:44:15.441Z,3.05
2022-11-23T17:46:42.642Z,3.30
2022-11-23T17:49:11.521Z,2.28
2022-11-23T17:51:38.151Z,3.15
2022-11-23T17:54:04.711Z,2.85
2022-11-23T17:56:31.271Z,2.92
2022-11-23T17:58:58.071Z,2.70
2022-11-23T18:01:24.677Z,2.65
2022-11-23T18:03:51.445Z,3.10
2022-11-23T18:06:22.233Z,2.80
2022-11-23T18:08:49.392Z,2.95
2022-11-23T18:11:16.531Z,3.00
2022-11-23T18:13:43.612Z,2.42
2022-11-23T18:16:10.680Z,2.70
2022-11-23T18:18:37.248Z,2.90
2022-11-23T18:21:04.392Z,2.83
2022-11-23T18:23:31.233Z,2.33
2022-11-23T18:26:01.802Z,2.70
2022-11-23T18:28:28.802Z,2.85
2022-11-23T18:30:55.406Z,2.30
2022-11-23T18:33:22.696Z,3.15
2022-11-23T18:35:49.741Z,2.42
2022-11-23T18:38:16.622Z,2.75
2022-11-23T18:40:43.181Z,2.38
2022-11-23T18:43:09.781Z,2.00
2022-11-23T18:45:36.441Z,2.15
2022-11-23T18:48:03.080Z,2.60
2022-11-23T18:50:29.581Z,2.63
2022-11-23T18:52:56.340Z,2.17
2022-11-23T18:55:22.861Z,2.20
2022-11-23T18:57:52.721Z,2.30
2022-11-23T19:00:19.321Z,2.42
2022-11-23T19:02:50.662Z,2.35
2022-11-23T19:05:17.182Z,2.40
2022-11-23T19:07:43.866Z,2.20
2022-11-23T19:10:10.531Z,2.40
2022-11-23T19:12:37.142Z,2.20
2022-11-23T19:15:05.404Z,2.40
2022-11-23T19:17:32.208Z,2.70
2022-11-23T19:19:58.842Z,2.47
2022-11-23T19:22:25.403Z,2.47
2022-11-23T19:24:51.901Z,2.47
2022-11-23T19:27:18.541Z,2.20
2022-11-23T19:29:45.041Z,2.30
2022-11-23T19:32:11.541Z,2.55
2022-11-23T19:34:38.089Z,2.25
2022-11-23T19:37:04.601Z,2.70
2022-11-23T19:39:31.273Z,2.40
2022-11-23T19:41:57.972Z,2.22
2022-11-23T19:44:24.520Z,2.20
2022-11-23T19:46:51.237Z,2.22
2022-11-23T19:49:17.822Z,2.20
2022-11-23T19:51:45.401Z,2.20
2022-11-23T19:54:11.981Z,2.35
2022-11-23T19:56:38.721Z,2.03
2022-11-23T19:59:05.463Z,2.28
2022-11-23T20:01:32.498Z,2.63
2022-11-23T20:04:03.996Z,2.50
2022-11-23T20:06:34.161Z,2.00
2022-11-23T20:09:05.141Z,3.38
2022-11-23T20:11:33.601Z,2.10
2022-11-23T20:14:00.300Z,2.40
2022-11-23T20:16:27.937Z,2.25
2022-11-23T20:18:57.216Z,2.03
2022-11-23T20:21:23.860Z,2.03
2022-11-23T20:23:57.657Z,2.22
2022-11-23T20:26:28.622Z,2.20
2022-11-23T20:28:56.064Z,1.92
2022-11-23T20:31:25.450Z,2.00
2022-11-23T20:33:52.756Z,2.00
2022-11-23T20:36:28.623Z,2.17
2022-11-23T20:38:58.269Z,1.90
2022-11-23T20:41:27.922Z,2.00
2022-11-23T20:44:02.074Z,1.90
2022-11-23T20:47:00.023Z,1.90
2022-11-23T20:49:17.081Z,2.35
2022-11-23T20:51:43.749Z,2.15
2022-11-23T20:54:10.341Z,2.13
2022-11-23T20:56:38.801Z,2.25
2022-11-23T20:59:05.321Z,2.08
2022-11-23T21:01:32.695Z,2.05
2022-11-23T21:03:59.800Z,1.90
2022-11-23T21:06:38.615Z,2.05
2022-11-23T21:09:06.401Z,2.45
2022-11-23T21:11:51.382Z,2.03
2022-11-23T21:14:19.204Z,2.65
2022-11-23T21:16:58.748Z,4.72
2022-11-23T21:19:35.573Z,4.22
2022-11-23T21:22:03.584Z,3.30
2022-11-23T21:24:30.221Z,2.97
2022-11-23T21:26:56.950Z,2.75
2022-11-23T21:29:23.921Z,2.50
2022-11-23T21:31:50.810Z,4.15
2022-11-23T21:34:24.363Z,2.25
2022-11-23T21:36:50.961Z,2.22
2022-11-23T21:39:17.665Z,2.00
2022-11-23T21:41:44.642Z,2.60
2022-11-23T21:44:11.642Z,2.20
2022-11-23T21:46:39.455Z,2.60
2022-11-23T21:49:09.091Z,2.35
2022-11-23T21:51:36.181Z,2.20
2022-11-23T21:54:04.022Z,2.03
2022-11-23T21:56:30.703Z,2.00
2022-11-23T21:58:57.826Z,2.10
2022-11-23T22:01:32.201Z,2.30
2022-11-23T22:04:00.954Z,2.17
2022-11-23T22:06:27.991Z,2.40
2022-11-23T22:08:55.391Z,2.45
2022-11-23T22:11:29.075Z,2.40
2022-11-23T22:13:56.874Z,2.63
2022-11-23T22:16:24.843Z,2.50
2022-11-23T22:18:55.585Z,2.33
2022-11-23T22:21:32.083Z,2.35
2022-11-23T22:23:58.822Z,2.17
2022-11-23T22:26:27.660Z,2.17
2022-11-23T22:28:54.927Z,2.22
2022-11-23T22:31:25.146Z,2.35
2022-11-23T22:33:54.796Z,2.42
2022-11-23T22:36:22.378Z,2.33
2022-11-23T22:38:57.920Z,2.58
2022-11-23T22:41:27.449Z,2.28
2022-11-23T22:43:54.628Z,2.22
2022-11-23T22:46:22.522Z,2.30
2022-11-23T22:48:50.117Z,2.10
2022-11-23T22:51:18.328Z,2.35
2022-11-23T22:53:45.216Z,2.47
2022-11-23T22:56:13.183Z,2.45
2022-11-23T22:58:40.148Z,2.35
2022-11-23T23:01:07.500Z,2.20
2022-11-23T23:03:34.681Z,2.13
2022-11-23T23:06:01.333Z,2.20
2022-11-23T23:08:28.296Z,1.83
2022-11-23T23:10:54.756Z,1.85
2022-11-23T23:13:21.700Z,2.42
2022-11-23T23:15:48.386Z,2.42
2022-11-23T23:18:16.201Z,2.25
2022-11-23T23:20:43.036Z,2.35
2022-11-23T23:23:09.587Z,2.30
2022-11-23T23:25:36.203Z,2.13
2022-11-23T23:28:02.884Z,1.95
2022-11-23T23:30:29.323Z,2.30
2022-11-23T23:32:58.230Z,2.25
2022-11-23T23:35:24.758Z,2.50
2022-11-23T23:37:51.634Z,2.13
2022-11-23T23:40:18.330Z,2.22
2022-11-23T23:42:44.922Z,2.40
2022-11-23T23:45:11.503Z,2.40
2022-11-23T23:47:37.935Z,2.15
2022-11-23T23:50:04.809Z,2.25
2022-11-23T23:52:31.301Z,2.00
2022-11-23T23:54:57.940Z,2.30
2022-11-23T23:57:24.552Z,1.92
2022-11-23T23:59:51.055Z,1.95
